createdAt,value
2018-04-01T00:00:40.257Z,4.50
2018-04-01T00:03:08.001Z,4.40
2018-04-01T00:05:36.513Z,4.40
2018-04-01T00:08:03.511Z,4.30
2018-04-01T00:10:30.491Z,4.20
2018-04-01T00:12:58.238Z,4.00
2018-04-01T00:15:25.248Z,4.10
2018-04-01T00:17:52.213Z,4.00
2018-04-01T00:20:19.207Z,4.00
2018-04-01T00:22:46.959Z,4.00
2018-04-01T00:25:14.688Z,3.90
2018-04-01T00:27:41.669Z,3.90
2018-04-01T00:30:09.407Z,3.80
2018-04-01T00:32:36.441Z,3.80
2018-04-01T00:35:04.179Z,3.70
2018-04-01T00:37:31.191Z,3.70
2018-04-01T00:39:58.959Z,3.70
2018-04-01T00:42:25.931Z,3.70
2018-04-01T00:44:52.923Z,3.70
2018-04-01T00:47:19.924Z,3.70
2018-04-01T00:49:46.904Z,3.80
2018-04-01T00:52:13.875Z,3.80
2018-04-01T00:54:40.893Z,3.80
2018-04-01T00:57:07.868Z,3.90
2018-04-01T00:59:34.852Z,3.90
2018-04-01T01:02:02.607Z,4.00
2018-04-01T01:04:32.408Z,4.00
2018-04-01T01:06:59.383Z,4.00
2018-04-01T01:09:26.370Z,4.00
2018-04-01T01:11:53.343Z,4.00
2018-04-01T01:14:20.334Z,3.90
2018-04-01T01:16:47.298Z,4.00
2018-04-01T01:19:14.274Z,4.00
2018-04-01T01:21:41.288Z,4.00
2018-04-01T01:24:08.293Z,4.00
2018-04-01T01:26:35.280Z,4.10
2018-04-01T01:29:02.241Z,4.10
2018-04-01T01:31:29.227Z,4.20
2018-04-01T01:33:57.002Z,4.30
2018-04-01T01:36:24.752Z,4.40
2018-04-01T01:38:52.555Z,4.40
2018-04-01T01:41:19.560Z,4.40
2018-04-01T01:43:46.530Z,4.50
2018-04-01T01:46:14.288Z,4.60
2018-04-01T01:48:42.042Z,4.60
2018-04-01T01:51:09.031Z,4.60
2018-04-01T01:53:35.985Z,4.70
2018-04-01T01:56:02.994Z,4.70
2018-04-01T01:58:29.945Z,4.70
2018-04-01T02:00:57.702Z,4.70
2018-04-01T02:03:25.445Z,4.70
2018-04-01T02:05:52.448Z,4.70
2018-04-01T02:08:19.430Z,4.70
2018-04-01T02:10:46.414Z,4.70
2018-04-01T02:13:14.236Z,4.90
2018-04-01T02:15:41.191Z,4.90
2018-04-01T02:18:08.171Z,5.00
2018-04-01T02:23:25.181Z,5.00
2018-04-01T02:26:05.477Z,5.00
2018-04-01T02:28:32.467Z,5.00
2018-04-01T02:30:59.444Z,5.10
2018-04-01T02:33:26.424Z,5.20
2018-04-01T02:35:53.411Z,5.20
2018-04-01T02:38:21.439Z,5.20
2018-04-01T02:40:48.411Z,5.20
2018-04-01T02:43:15.389Z,5.20
2018-04-01T02:45:42.366Z,5.20
2018-04-01T02:48:10.111Z,5.10
2018-04-01T02:50:37.089Z,5.10
2018-04-01T02:53:04.065Z,5.10
2018-04-01T02:55:31.068Z,5.10
2018-04-01T02:57:58.054Z,5.10
2018-04-01T03:00:25.105Z,5.10
2018-04-01T03:02:52.087Z,5.10
2018-04-01T03:05:19.889Z,5.00
2018-04-01T03:07:46.867Z,5.00
2018-04-01T03:10:13.845Z,5.00
2018-04-01T03:12:40.953Z,5.00
2018-04-01T03:15:07.945Z,4.90
2018-04-01T03:17:34.964Z,4.90
2018-04-01T03:20:01.930Z,4.90
2018-04-01T03:22:28.928Z,4.90
2018-04-01T03:24:55.939Z,4.90
2018-04-01T03:27:22.935Z,4.80
2018-04-01T03:29:49.979Z,4.80
2018-04-01T03:32:16.977Z,4.80
2018-04-01T03:34:43.999Z,4.80
2018-04-01T03:37:11.003Z,4.80
2018-04-01T03:39:38.074Z,4.90
2018-04-01T03:42:05.047Z,4.90
2018-04-01T03:44:32.060Z,4.90
2018-04-01T03:46:59.066Z,4.90
2018-04-01T03:49:26.031Z,5.00
2018-04-01T03:51:53.787Z,5.00
2018-04-01T03:54:21.545Z,5.00
2018-04-01T03:56:48.576Z,5.10
2018-04-01T03:59:15.551Z,5.10
2018-04-01T04:01:43.297Z,5.10
2018-04-01T04:04:10.307Z,5.10
2018-04-01T04:06:37.288Z,5.20
2018-04-01T04:09:04.294Z,5.20
2018-04-01T04:11:31.326Z,5.20
2018-04-01T04:13:58.350Z,5.20
2018-04-01T04:16:26.218Z,5.20
2018-04-01T04:18:53.976Z,5.20
2018-04-01T04:21:20.959Z,5.20
2018-04-01T04:23:47.938Z,5.20
2018-04-01T04:26:14.917Z,5.20
2018-04-01T04:28:41.886Z,5.20
2018-04-01T04:31:08.888Z,5.20
2018-04-01T04:33:35.874Z,5.20
2018-04-01T04:36:03.622Z,5.20
2018-04-01T04:38:30.596Z,5.20
2018-04-01T04:40:58.355Z,5.20
2018-04-01T04:43:26.131Z,5.20
2018-04-01T04:45:53.124Z,5.20
2018-04-01T04:48:20.099Z,5.20
2018-04-01T04:50:47.299Z,5.20
2018-04-01T04:53:14.298Z,5.20
2018-04-01T04:55:41.295Z,5.20
2018-04-01T04:58:08.282Z,5.20
2018-04-01T05:00:35.301Z,5.20
2018-04-01T05:03:02.285Z,5.20
2018-04-01T05:05:29.254Z,5.20
2018-04-01T05:07:56.248Z,5.20
2018-04-01T05:10:23.236Z,5.20
2018-04-01T05:12:50.983Z,5.20
2018-04-01T05:15:18.041Z,5.20
2018-04-01T05:17:45.880Z,5.20
2018-04-01T05:20:12.835Z,5.20
2018-04-01T05:22:39.826Z,5.20
2018-04-01T05:25:06.807Z,5.20
2018-04-01T05:27:33.784Z,5.20
2018-04-01T05:30:00.758Z,5.20
2018-04-01T05:32:28.517Z,5.20
2018-04-01T05:34:56.254Z,5.20
2018-04-01T05:37:23.238Z,5.20
2018-04-01T05:39:50.235Z,5.20
2018-04-01T05:42:17.318Z,5.20
2018-04-01T05:44:45.071Z,5.30
2018-04-01T05:47:12.038Z,5.30
2018-04-01T05:49:39.802Z,5.00
2018-04-01T05:52:07.554Z,5.00
2018-04-01T05:54:34.563Z,4.90
2018-04-01T05:57:01.541Z,4.90
2018-04-01T05:59:28.542Z,4.80
2018-04-01T06:01:55.545Z,4.80
2018-04-01T06:04:22.534Z,4.90
2018-04-01T06:06:49.564Z,4.90
2018-04-01T06:09:16.607Z,4.90
2018-04-01T06:11:44.356Z,4.90
2018-04-01T06:14:12.140Z,4.80
2018-04-01T06:16:39.182Z,4.80
2018-04-01T06:19:06.938Z,4.80
2018-04-01T06:21:34.679Z,4.80
2018-04-01T06:24:01.652Z,4.80
2018-04-01T06:26:29.409Z,4.80
2018-04-01T06:28:56.421Z,4.70
2018-04-01T06:31:23.403Z,4.70
2018-04-01T06:33:50.491Z,4.80
2018-04-01T06:36:17.484Z,4.70
2018-04-01T06:38:44.483Z,4.70
2018-04-01T06:41:12.237Z,4.70
2018-04-01T06:43:39.307Z,4.70
2018-04-01T06:46:06.294Z,4.80
2018-04-01T06:48:33.337Z,4.80
2018-04-01T06:51:00.306Z,4.90
2018-04-01T06:53:28.087Z,4.90
2018-04-01T06:55:55.822Z,4.90
2018-04-01T06:58:22.810Z,4.90
2018-04-01T07:00:49.792Z,5.00
2018-04-01T07:03:16.772Z,5.10
2018-04-01T07:05:43.820Z,5.20
2018-04-01T07:08:10.834Z,5.30
2018-04-01T07:10:38.618Z,5.50
2018-04-01T07:13:05.644Z,5.40
2018-04-01T07:15:32.671Z,5.40
2018-04-01T07:17:59.790Z,5.40
2018-04-01T07:20:27.537Z,6.00
2018-04-01T07:22:54.555Z,6.00
2018-04-01T07:25:21.556Z,6.10
2018-04-01T07:27:49.300Z,5.90
2018-04-01T07:30:16.272Z,5.90
2018-04-01T07:32:44.014Z,6.50
2018-04-01T07:35:11.779Z,6.60
2018-04-01T07:37:38.755Z,6.60
2018-04-01T07:40:05.810Z,6.60
2018-04-01T07:42:32.796Z,6.60
2018-04-01T07:45:00.547Z,6.40
2018-04-01T07:47:28.361Z,6.50
2018-04-01T07:49:56.470Z,6.40
2018-04-01T07:52:23.429Z,6.40
2018-04-01T07:54:50.409Z,6.60
2018-04-01T07:57:17.408Z,6.60
2018-04-01T07:59:44.402Z,6.50
2018-04-01T08:02:11.400Z,6.40
2018-04-01T08:04:38.394Z,6.50
2018-04-01T08:07:05.367Z,6.50
2018-04-01T08:09:33.885Z,6.50
2018-04-01T08:12:00.905Z,6.40
2018-04-01T08:14:27.926Z,6.50
2018-04-01T08:16:55.133Z,6.50
2018-04-01T08:19:22.939Z,6.60
2018-04-01T08:21:49.933Z,6.60
2018-04-01T08:24:16.899Z,6.80
2018-04-01T08:26:43.897Z,7.00
2018-04-01T08:29:11.668Z,7.30
2018-04-01T08:31:39.412Z,7.40
2018-04-01T08:34:06.418Z,7.30
2018-04-01T08:36:33.419Z,7.60
2018-04-01T08:39:01.173Z,8.20
2018-04-01T08:41:28.173Z,8.20
2018-04-01T08:43:55.219Z,8.40
2018-04-01T08:46:22.234Z,8.10
2018-04-01T08:48:49.201Z,7.90
2018-04-01T08:51:16.261Z,7.90
2018-04-01T08:53:43.393Z,7.70
2018-04-01T08:56:10.775Z,7.30
2018-04-01T08:58:37.785Z,7.20
2018-04-01T09:01:05.564Z,7.50
2018-04-01T09:03:32.584Z,7.50
2018-04-01T09:05:59.583Z,7.70
2018-04-01T09:08:26.586Z,8.00
2018-04-01T09:10:54.368Z,7.70
2018-04-01T09:13:21.366Z,7.70
2018-04-01T09:15:48.451Z,7.80
2018-04-01T09:18:16.212Z,7.90
2018-04-01T09:20:43.194Z,7.90
2018-04-01T09:23:10.398Z,8.30
2018-04-01T09:25:37.517Z,8.10
2018-04-01T09:28:04.512Z,8.30
2018-04-01T09:30:32.337Z,8.70
2018-04-01T09:32:59.369Z,8.70
2018-04-01T09:35:26.862Z,8.70
2018-04-01T09:37:53.826Z,8.50
2018-04-01T09:40:21.800Z,8.30
2018-04-01T09:42:49.285Z,8.10
2018-04-01T09:45:16.284Z,7.90
2018-04-01T09:47:43.282Z,7.60
2018-04-01T09:50:10.271Z,7.50
2018-04-01T09:52:37.233Z,7.60
2018-04-01T09:55:04.247Z,7.60
2018-04-01T09:57:31.217Z,7.70
2018-04-01T09:59:58.194Z,7.90
2018-04-01T10:02:26.482Z,8.40
2018-04-01T10:05:06.695Z,8.60
2018-04-01T10:07:34.270Z,8.60
2018-04-01T10:10:01.972Z,8.60
2018-04-01T10:12:29.434Z,8.70
2018-04-01T10:14:56.927Z,8.50
2018-04-01T10:17:24.503Z,8.60
2018-04-01T10:19:52.811Z,9.00
2018-04-01T10:22:21.079Z,9.30
2018-04-01T10:24:49.346Z,9.40
2018-04-01T10:27:16.936Z,9.40
2018-04-01T10:29:44.453Z,9.30
2018-04-01T10:32:12.053Z,9.40
2018-04-01T10:34:39.544Z,9.10
2018-04-01T10:37:07.029Z,9.00
2018-04-01T10:39:34.599Z,9.00
2018-04-01T10:42:02.107Z,9.20
2018-04-01T10:44:30.671Z,9.10
2018-04-01T10:46:58.972Z,9.40
2018-04-01T10:49:27.928Z,9.30
2018-04-01T10:51:55.547Z,9.40
2018-04-01T10:54:22.539Z,9.50
2018-04-01T10:56:50.289Z,9.10
2018-04-01T10:59:18.052Z,8.90
2018-04-01T11:01:45.064Z,8.90
2018-04-01T11:04:12.048Z,8.80
2018-04-01T11:06:39.019Z,8.60
2018-04-01T11:09:06.791Z,8.30
2018-04-01T11:11:33.805Z,8.30
2018-04-01T11:14:00.790Z,8.20
2018-04-01T11:16:27.774Z,7.90
2018-04-01T11:18:54.839Z,7.80
2018-04-01T11:21:21.824Z,7.80
2018-04-01T11:23:49.851Z,7.70
2018-04-01T11:26:16.840Z,7.70
2018-04-01T11:28:44.615Z,7.80
2018-04-01T11:31:11.641Z,7.80
2018-04-01T11:33:38.612Z,7.90
2018-04-01T11:36:05.589Z,7.90
2018-04-01T11:38:32.594Z,7.80
2018-04-01T11:41:00.338Z,7.80
2018-04-01T11:43:27.358Z,7.80
2018-04-01T11:45:54.334Z,7.80
2018-04-01T11:48:21.375Z,7.70
2018-04-01T11:50:48.371Z,7.70
2018-04-01T11:53:16.031Z,7.70
2018-04-01T11:55:43.032Z,7.70
2018-04-01T11:58:09.998Z,7.80
2018-04-01T12:00:37.762Z,7.70
2018-04-01T12:03:05.500Z,7.70
2018-04-01T12:05:32.486Z,7.70
2018-04-01T12:08:00.247Z,7.90
2018-04-01T12:10:27.983Z,8.00
2018-04-01T12:12:54.982Z,8.00
2018-04-01T12:15:22.087Z,8.10
2018-04-01T12:17:49.859Z,8.10
2018-04-01T12:20:16.899Z,8.00
2018-04-01T12:22:43.911Z,8.10
2018-04-01T12:25:11.695Z,8.40
2018-04-01T12:27:38.695Z,8.40
2018-04-01T12:30:05.664Z,8.50
2018-04-01T12:32:32.943Z,8.40
2018-04-01T12:34:59.916Z,8.30
2018-04-01T12:37:27.011Z,8.20
2018-04-01T12:39:53.983Z,8.20
2018-04-01T12:42:20.958Z,8.20
2018-04-01T12:44:47.934Z,8.30
2018-04-01T12:47:14.924Z,8.50
2018-04-01T12:49:41.935Z,9.00
2018-04-01T12:52:08.937Z,9.50
2018-04-01T12:54:35.935Z,10.10
2018-04-01T12:57:02.926Z,10.50
2018-04-01T12:59:29.936Z,10.40
2018-04-01T13:01:56.935Z,10.10
2018-04-01T13:04:24.066Z,10.00
2018-04-01T13:06:51.230Z,9.80
2018-04-01T13:09:18.232Z,9.60
2018-04-01T13:11:45.324Z,9.60
2018-04-01T13:14:12.463Z,9.40
2018-04-01T13:16:39.440Z,9.30
2018-04-01T13:19:07.205Z,9.50
2018-04-01T13:21:34.950Z,9.90
2018-04-01T13:24:01.955Z,9.80
2018-04-01T13:26:28.954Z,9.60
2018-04-01T13:28:56.007Z,9.60
2018-04-01T13:31:23.768Z,9.60
2018-04-01T13:33:50.808Z,9.50
2018-04-01T13:36:18.804Z,9.20
2018-04-01T13:38:46.643Z,9.00
2018-04-01T13:41:13.712Z,9.00
2018-04-01T13:43:41.490Z,8.70
2018-04-01T13:46:09.312Z,8.60
2018-04-01T13:48:36.289Z,8.60
2018-04-01T13:51:04.040Z,8.30
2018-04-01T13:53:31.025Z,8.30
2018-04-01T13:55:58.028Z,8.30
2018-04-01T13:58:25.033Z,8.30
2018-04-01T14:00:52.030Z,8.40
2018-04-01T14:03:19.022Z,8.40
2018-04-01T14:05:46.610Z,8.30
2018-04-01T14:08:13.609Z,8.20
2018-04-01T14:10:41.369Z,8.10
2018-04-01T14:13:09.137Z,8.10
2018-04-01T14:15:36.919Z,8.00
2018-04-01T14:18:03.905Z,8.00
2018-04-01T14:20:30.915Z,7.90
2018-04-01T14:22:57.890Z,7.90
2018-04-01T14:25:24.916Z,7.80
2018-04-01T14:27:51.904Z,7.80
2018-04-01T14:30:18.942Z,7.80
2018-04-01T14:32:45.898Z,7.90
2018-04-01T14:35:12.906Z,8.10
2018-04-01T14:37:39.885Z,8.00
2018-04-01T14:40:06.868Z,7.50
2018-04-01T14:42:33.865Z,7.30
2018-04-01T14:45:00.863Z,7.10
2018-04-01T14:47:27.895Z,7.10
2018-04-01T14:49:54.871Z,7.10
2018-04-01T14:52:22.632Z,7.00
2018-04-01T14:54:50.386Z,7.10
2018-04-01T14:57:17.405Z,7.10
2018-04-01T14:59:44.378Z,7.30
2018-04-01T15:02:12.158Z,7.50
2018-04-01T15:04:39.894Z,7.50
2018-04-01T15:07:06.981Z,7.50
2018-04-01T15:09:33.984Z,7.40
2018-04-01T15:12:00.955Z,7.50
2018-04-01T15:14:28.703Z,7.40
2018-04-01T15:16:55.700Z,7.30
2018-04-01T15:19:22.685Z,7.30
2018-04-01T15:21:49.684Z,7.30
2018-04-01T15:24:18.081Z,7.20
2018-04-01T15:26:45.463Z,7.20
2018-04-01T15:29:12.587Z,7.10
2018-04-01T15:31:39.586Z,7.10
2018-04-01T15:34:07.399Z,7.10
2018-04-01T15:36:35.249Z,7.10
2018-04-01T15:39:02.267Z,7.10
2018-04-01T15:41:29.291Z,7.10
2018-04-01T15:43:56.259Z,7.10
2018-04-01T15:46:23.247Z,7.00
2018-04-01T15:48:50.220Z,7.00
2018-04-01T15:51:17.222Z,7.00
2018-04-01T15:53:44.979Z,6.90
2018-04-01T15:56:13.275Z,6.90
2018-04-01T15:58:40.303Z,6.90
2018-04-01T16:01:07.547Z,6.90
2018-04-01T16:03:34.658Z,6.90
2018-04-01T16:06:01.808Z,6.80
2018-04-01T16:08:29.298Z,6.80
2018-04-01T16:10:56.284Z,6.70
2018-04-01T16:13:23.306Z,6.60
2018-04-01T16:15:51.094Z,6.50
2018-04-01T16:18:18.855Z,6.40
2018-04-01T16:20:45.863Z,6.30
2018-04-01T16:23:12.847Z,6.20
2018-04-01T16:25:39.843Z,6.20
2018-04-01T16:28:06.850Z,6.20
2018-04-01T16:30:33.848Z,6.10
2018-04-01T16:33:01.221Z,6.10
2018-04-01T16:35:28.675Z,6.00
2018-04-01T16:37:55.700Z,6.00
2018-04-01T16:40:23.651Z,5.90
2018-04-01T16:42:50.903Z,5.90
2018-04-01T16:45:17.998Z,5.90
2018-04-01T16:47:45.349Z,5.90
2018-04-01T16:50:12.507Z,5.90
2018-04-01T16:52:40.670Z,6.00
2018-04-01T16:55:07.773Z,5.90
2018-04-01T16:57:34.769Z,6.00
2018-04-01T17:00:01.753Z,6.00
2018-04-01T17:02:29.870Z,6.00
2018-04-01T17:04:56.842Z,6.00
2018-04-01T17:07:23.853Z,5.90
2018-04-01T17:09:51.287Z,5.90
2018-04-01T17:12:18.306Z,5.90
2018-04-01T17:14:46.764Z,5.90
2018-04-01T17:17:13.860Z,5.90
2018-04-01T17:19:40.847Z,5.90
2018-04-01T17:22:07.919Z,5.90
2018-04-01T17:24:34.907Z,5.90
2018-04-01T17:27:02.068Z,5.90
2018-04-01T17:29:29.153Z,5.90
2018-04-01T17:31:56.922Z,5.90
2018-04-01T17:34:27.181Z,5.90
2018-04-01T17:36:54.259Z,5.90
2018-04-01T17:39:21.243Z,5.90
2018-04-01T17:41:48.270Z,5.90
2018-04-01T17:44:15.289Z,5.90
2018-04-01T17:46:42.268Z,5.90
2018-04-01T17:49:09.284Z,5.80
2018-04-01T17:51:36.258Z,5.80
2018-04-01T17:54:03.234Z,5.80
2018-04-01T17:56:30.234Z,5.80
2018-04-01T17:58:57.647Z,5.80
2018-04-01T18:01:24.661Z,5.80
2018-04-01T18:03:51.670Z,5.80
2018-04-01T18:06:18.661Z,5.80
2018-04-01T18:08:45.666Z,5.80
2018-04-01T18:11:12.649Z,5.80
2018-04-01T18:13:39.747Z,5.80
2018-04-01T18:16:07.666Z,5.70
2018-04-01T18:18:34.731Z,5.70
2018-04-01T18:21:01.773Z,5.70
2018-04-01T18:23:28.778Z,5.80
2018-04-01T18:25:55.776Z,5.80
2018-04-01T18:28:23.181Z,5.80
2018-04-01T18:30:50.187Z,5.80
2018-04-01T18:33:17.231Z,5.80
2018-04-01T18:35:44.194Z,5.70
2018-04-01T18:38:12.012Z,5.80
2018-04-01T18:40:39.094Z,5.70
2018-04-01T18:43:06.087Z,5.70
2018-04-01T18:45:33.065Z,5.70
2018-04-01T18:48:00.086Z,5.70
2018-04-01T18:50:27.071Z,5.70
2018-04-01T18:52:54.059Z,5.70
2018-04-01T18:55:21.855Z,5.80
2018-04-01T18:57:48.889Z,5.70
2018-04-01T19:00:15.905Z,5.70
2018-04-01T19:02:43.663Z,5.70
2018-04-01T19:05:11.681Z,5.70
2018-04-01T19:07:39.620Z,5.70
2018-04-01T19:10:07.366Z,5.70
2018-04-01T19:12:34.351Z,5.70
2018-04-01T19:15:01.403Z,5.70
2018-04-01T19:17:28.950Z,5.70
2018-04-01T19:19:56.496Z,5.70
2018-04-01T19:22:24.379Z,5.70
2018-04-01T19:24:51.894Z,5.70
2018-04-01T19:27:19.392Z,5.70
2018-04-01T19:29:47.647Z,5.80
2018-04-01T19:32:15.145Z,5.80
2018-04-01T19:34:42.664Z,5.80
2018-04-01T19:37:10.165Z,5.80
2018-04-01T19:39:37.683Z,5.70
2018-04-01T19:42:05.159Z,5.70
2018-04-01T19:44:32.715Z,5.70
2018-04-01T19:47:01.508Z,5.70
2018-04-01T19:49:29.762Z,5.60
2018-04-01T19:51:57.246Z,5.60
2018-04-01T19:54:26.259Z,5.60
2018-04-01T19:56:54.573Z,5.60
2018-04-01T19:59:23.001Z,5.50
2018-04-01T20:01:51.290Z,5.50
2018-04-01T20:06:50.561Z,5.50
2018-04-01T20:09:18.044Z,5.60
2018-04-01T20:11:45.538Z,5.60
2018-04-01T20:14:13.007Z,5.60
2018-04-01T20:16:40.491Z,5.60
2018-04-01T20:19:07.987Z,5.60
2018-04-01T20:21:35.555Z,5.60
2018-04-01T20:24:03.042Z,5.60
2018-04-01T20:26:30.543Z,5.60
2018-04-01T20:28:58.809Z,5.50
2018-04-01T20:31:26.801Z,5.50
2018-04-01T20:33:55.630Z,5.50
2018-04-01T20:36:23.131Z,5.40
2018-04-01T20:38:50.988Z,5.50
2018-04-01T20:41:22.177Z,5.40
2018-04-01T20:43:50.435Z,5.40
2018-04-01T20:46:18.748Z,5.40
2018-04-01T20:48:46.228Z,5.30
2018-04-01T20:51:13.753Z,5.40
2018-04-01T20:53:41.983Z,5.30
2018-04-01T20:56:10.651Z,5.30
2018-04-01T20:58:38.139Z,5.30
2018-04-01T21:01:05.707Z,5.30
2018-04-01T21:03:33.984Z,5.20
2018-04-01T21:06:01.758Z,5.20
2018-04-01T21:08:29.881Z,5.20
2018-04-01T21:10:57.539Z,5.20
2018-04-01T21:13:25.013Z,5.10
2018-04-01T21:15:52.744Z,5.10
2018-04-01T21:18:20.384Z,5.00
2018-04-01T21:20:48.666Z,4.90
2018-04-01T21:23:16.250Z,4.90
2018-04-01T21:25:44.280Z,4.80
2018-04-01T21:28:11.919Z,4.70
2018-04-01T21:30:39.500Z,4.70
2018-04-01T21:33:07.054Z,4.60
2018-04-01T21:35:36.700Z,4.50
2018-04-01T21:38:04.966Z,4.40
2018-04-01T21:40:33.328Z,4.40
2018-04-01T21:43:01.248Z,4.40
2018-04-01T21:45:28.850Z,4.40
2018-04-01T21:47:56.369Z,4.40
2018-04-01T21:50:23.886Z,4.40
2018-04-01T21:52:51.364Z,4.50
2018-04-01T21:55:18.854Z,4.50
2018-04-01T21:57:46.359Z,4.40
2018-04-01T22:00:13.864Z,4.50
2018-04-01T22:02:41.393Z,4.50
2018-04-01T22:05:08.826Z,4.50
2018-04-01T22:07:36.960Z,4.50
2018-04-01T22:10:04.502Z,4.50
2018-04-01T22:12:32.333Z,4.50
2018-04-01T22:14:59.823Z,4.60
2018-04-01T22:17:27.302Z,4.60
2018-04-01T22:19:54.786Z,4.60
2018-04-01T22:22:22.277Z,4.70
2018-04-01T22:24:50.572Z,4.60
2018-04-01T22:27:18.062Z,4.60
2018-04-01T22:29:45.526Z,4.60
2018-04-01T22:32:13.008Z,4.50
2018-04-01T22:34:40.492Z,4.40
2018-04-01T22:37:08.746Z,4.20
2018-04-01T22:39:36.290Z,4.20
2018-04-01T22:42:03.783Z,4.20
2018-04-01T22:44:32.030Z,4.00
2018-04-01T22:46:59.515Z,4.00
2018-04-01T22:49:27.752Z,3.90
2018-04-01T22:51:55.225Z,3.90
2018-04-01T22:54:22.709Z,3.90
2018-04-01T22:56:50.950Z,3.90
2018-04-01T22:59:18.417Z,3.90
2018-04-01T23:01:45.904Z,3.90
2018-04-01T23:04:13.409Z,3.80
2018-04-01T23:06:40.908Z,3.80
2018-04-01T23:09:08.402Z,3.80
2018-04-01T23:11:35.974Z,3.80
2018-04-01T23:14:03.471Z,3.80
2018-04-01T23:16:31.044Z,3.70
2018-04-01T23:18:58.516Z,3.70
2018-04-01T23:21:25.998Z,3.60
2018-04-01T23:23:53.663Z,3.60
2018-04-01T23:26:21.172Z,3.60
2018-04-01T23:28:48.982Z,3.50
2018-04-01T23:31:17.248Z,3.60
2018-04-01T23:33:44.731Z,3.60
2018-04-01T23:36:12.353Z,3.70
2018-04-01T23:38:39.926Z,3.70
2018-04-01T23:41:08.166Z,3.80
2018-04-01T23:43:36.142Z,3.70
2018-04-01T23:46:03.602Z,3.80
2018-04-01T23:48:31.491Z,3.80
2018-04-01T23:50:58.987Z,3.80
2018-04-01T23:53:26.516Z,3.80
2018-04-01T23:55:54.009Z,3.70
2018-04-01T23:58:21.495Z,3.70
